sensor_id;sensor_type;location;lat;lon;timestamp;P1;P2;P0
82179;PMS5003;71761;21.336;-157.724;2023-08-06T00:02:10;2;2;
82179;PMS5003;71761;21.336;-157.724;2023-08-06T00:04:35;2;2;
82179;PMS5003;71761;21.336;-157.724;2023-08-06T00:07:01;1;1;
82179;PMS5003;71761;21.336;-157.724;2023-08-06T00:09:26;2;1;
82179;PMS5003;71761;21.336;-157.724;2023-08-06T00:11:51;3;3;
82179;PMS5003;71761;21.336;-157.724;2023-08-06T00:14:16;1;1;
82179;PMS5003;71761;21.336;-157.724;2023-08-06T00:16:43;3;1;
82179;PMS5003;71761;21.336;-157.724;2023-08-06T00:19:07;1;1;
82179;PMS5003;71761;21.336;-157.724;2023-08-06T00:21:33;3;2;
82179;PMS5003;71761;21.336;-157.724;2023-08-06T00:23:58;2;2;
82179;PMS5003;71761;21.336;-157.724;2023-08-06T00:26:24;0;0;
82179;PMS5003;71761;21.336;-157.724;2023-08-06T00:28:49;2;1;
82179;PMS5003;71761;21.336;-157.724;2023-08-06T00:31:14;1;1;
82179;PMS5003;71761;21.336;-157.724;2023-08-06T00:33:40;1;1;
82179;PMS5003;71761;21.336;-157.724;2023-08-06T00:36:05;1;1;
82179;PMS5003;71761;21.336;-157.724;2023-08-06T00:38:31;2;1;
82179;PMS5003;71761;21.336;-157.724;2023-08-06T00:40:56;2;2;
82179;PMS5003;71761;21.336;-157.724;2023-08-06T00:43:21;1;1;
82179;PMS5003;71761;21.336;-157.724;2023-08-06T00:45:47;1;1;
82179;PMS5003;71761;21.336;-157.724;2023-08-06T00:48:12;5;5;
82179;PMS5003;71761;21.336;-157.724;2023-08-06T00:50:38;1;1;
82179;PMS5003;71761;21.336;-157.724;2023-08-06T00:53:03;1;1;
82179;PMS5003;71761;21.336;-157.724;2023-08-06T00:55:29;4;1;
82179;PMS5003;71761;21.336;-157.724;2023-08-06T00:57:54;2;2;
82179;PMS5003;71761;21.336;-157.724;2023-08-06T01:00:19;4;2;
82179;PMS5003;71761;21.336;-157.724;2023-08-06T01:05:10;3;1;
82179;PMS5003;71761;21.336;-157.724;2023-08-06T01:07:41;2;1;
82179;PMS5003;71761;21.336;-157.724;2023-08-06T01:10:06;1;1;
82179;PMS5003;71761;21.336;-157.724;2023-08-06T01:12:29;1;1;
82179;PMS5003;71761;21.336;-157.724;2023-08-06T01:14:53;2;2;
82179;PMS5003;71761;21.336;-157.724;2023-08-06T01:17:17;1;1;
82179;PMS5003;71761;21.336;-157.724;2023-08-06T01:19:42;1;1;
82179;PMS5003;71761;21.336;-157.724;2023-08-06T01:22:08;1;1;
82179;PMS5003;71761;21.336;-157.724;2023-08-06T01:24:33;1;0;
82179;PMS5003;71761;21.336;-157.724;2023-08-06T01:27:01;1;1;
82179;PMS5003;71761;21.336;-157.724;2023-08-06T01:29:27;2;2;
82179;PMS5003;71761;21.336;-157.724;2023-08-06T01:31:50;1;1;
82179;PMS5003;71761;21.336;-157.724;2023-08-06T01:34:17;1;1;
82179;PMS5003;71761;21.336;-157.724;2023-08-06T01:36:40;1;1;
82179;PMS5003;71761;21.336;-157.724;2023-08-06T01:39:06;2;2;
82179;PMS5003;71761;21.336;-157.724;2023-08-06T01:41:31;1;1;
82179;PMS5003;71761;21.336;-157.724;2023-08-06T01:46:22;2;1;
82179;PMS5003;71761;21.336;-157.724;2023-08-06T01:48:47;1;1;
82179;PMS5003;71761;21.336;-157.724;2023-08-06T01:51:13;0;0;
82179;PMS5003;71761;21.336;-157.724;2023-08-06T01:53:38;1;1;
82179;PMS5003;71761;21.336;-157.724;2023-08-06T01:56:03;1;1;
82179;PMS5003;71761;21.336;-157.724;2023-08-06T01:58:29;1;1;
82179;PMS5003;71761;21.336;-157.724;2023-08-06T02:00:54;1;1;
82179;PMS5003;71761;21.336;-157.724;2023-08-06T02:03:20;1;1;
82179;PMS5003;71761;21.336;-157.724;2023-08-06T02:05:45;3;1;
82179;PMS5003;71761;21.336;-157.724;2023-08-06T02:08:10;2;2;
82179;PMS5003;71761;21.336;-157.724;2023-08-06T02:10:36;1;1;
82179;PMS5003;71761;21.336;-157.724;2023-08-06T02:13:01;1;1;
82179;PMS5003;71761;21.336;-157.724;2023-08-06T02:15:27;1;1;
82179;PMS5003;71761;21.336;-157.724;2023-08-06T02:17:52;0;0;
82179;PMS5003;71761;21.336;-157.724;2023-08-06T02:20:17;1;1;
82179;PMS5003;71761;21.336;-157.724;2023-08-06T02:22:43;1;0;
82179;PMS5003;71761;21.336;-157.724;2023-08-06T02:25:08;1;1;
82179;PMS5003;71761;21.336;-157.724;2023-08-06T02:27:34;1;1;
82179;PMS5003;71761;21.336;-157.724;2023-08-06T02:29:59;0;0;
82179;PMS5003;71761;21.336;-157.724;2023-08-06T02:32:24;2;1;
82179;PMS5003;71761;21.336;-157.724;2023-08-06T02:34:50;1;1;
82179;PMS5003;71761;21.336;-157.724;2023-08-06T02:37:15;1;1;
82179;PMS5003;71761;21.336;-157.724;2023-08-06T02:39:41;2;2;
82179;PMS5003;71761;21.336;-157.724;2023-08-06T02:42:06;2;2;
82179;PMS5003;71761;21.336;-157.724;2023-08-06T02:44:31;3;3;
82179;PMS5003;71761;21.336;-157.724;2023-08-06T02:46:57;1;1;
82179;PMS5003;71761;21.336;-157.724;2023-08-06T02:49:22;2;2;
82179;PMS5003;71761;21.336;-157.724;2023-08-06T02:51:48;2;1;
82179;PMS5003;71761;21.336;-157.724;2023-08-06T02:54:13;0;0;
82179;PMS5003;71761;21.336;-157.724;2023-08-06T02:56:39;5;2;
82179;PMS5003;71761;21.336;-157.724;2023-08-06T02:59:04;2;2;
82179;PMS5003;71761;21.336;-157.724;2023-08-06T03:01:29;2;2;
82179;PMS5003;71761;21.336;-157.724;2023-08-06T03:03:55;1;1;
82179;PMS5003;71761;21.336;-157.724;2023-08-06T03:06:20;1;1;
82179;PMS5003;71761;21.336;-157.724;2023-08-06T03:08:45;3;1;
82179;PMS5003;71761;21.336;-157.724;2023-08-06T03:11:11;2;2;
82179;PMS5003;71761;21.336;-157.724;2023-08-06T03:13:36;2;2;
82179;PMS5003;71761;21.336;-157.724;2023-08-06T03:16:01;2;2;
82179;PMS5003;71761;21.336;-157.724;2023-08-06T03:18:28;2;2;
82179;PMS5003;71761;21.336;-157.724;2023-08-06T03:20:52;4;2;
82179;PMS5003;71761;21.336;-157.724;2023-08-06T03:23:18;2;1;
82179;PMS5003;71761;21.336;-157.724;2023-08-06T03:25:43;6;4;
82179;PMS5003;71761;21.336;-157.724;2023-08-06T03:28:08;2;2;
82179;PMS5003;71761;21.336;-157.724;2023-08-06T03:30:34;1;1;
82179;PMS5003;71761;21.336;-157.724;2023-08-06T03:32:59;2;2;
82179;PMS5003;71761;21.336;-157.724;2023-08-06T03:35:24;1;1;
82179;PMS5003;71761;21.336;-157.724;2023-08-06T03:37:50;2;1;
82179;PMS5003;71761;21.336;-157.724;2023-08-06T03:40:16;3;3;
82179;PMS5003;71761;21.336;-157.724;2023-08-06T03:42:41;1;1;
82179;PMS5003;71761;21.336;-157.724;2023-08-06T03:45:07;2;2;
82179;PMS5003;71761;21.336;-157.724;2023-08-06T03:47:32;0;0;
82179;PMS5003;71761;21.336;-157.724;2023-08-06T03:49:57;3;1;
82179;PMS5003;71761;21.336;-157.724;2023-08-06T03:52:22;0;0;
82179;PMS5003;71761;21.336;-157.724;2023-08-06T03:54:48;2;2;
82179;PMS5003;71761;21.336;-157.724;2023-08-06T03:57:13;3;2;
82179;PMS5003;71761;21.336;-157.724;2023-08-06T03:59:39;3;2;
82179;PMS5003;71761;21.336;-157.724;2023-08-06T04:02:04;1;0;
82179;PMS5003;71761;21.336;-157.724;2023-08-06T04:04:29;2;2;
82179;PMS5003;71761;21.336;-157.724;2023-08-06T04:06:55;1;1;
82179;PMS5003;71761;21.336;-157.724;2023-08-06T04:09:20;2;2;
82179;PMS5003;71761;21.336;-157.724;2023-08-06T04:11:45;3;2;
82179;PMS5003;71761;21.336;-157.724;2023-08-06T04:14:11;1;1;
82179;PMS5003;71761;21.336;-157.724;2023-08-06T04:16:36;2;2;
82179;PMS5003;71761;21.336;-157.724;2023-08-06T04:19:01;1;1;
82179;PMS5003;71761;21.336;-157.724;2023-08-06T04:21:26;5;5;
82179;PMS5003;71761;21.336;-157.724;2023-08-06T04:23:53;3;2;
82179;PMS5003;71761;21.336;-157.724;2023-08-06T04:26:17;1;1;
82179;PMS5003;71761;21.336;-157.724;2023-08-06T04:28:43;2;2;
82179;PMS5003;71761;21.336;-157.724;2023-08-06T04:31:08;1;1;
82179;PMS5003;71761;21.336;-157.724;2023-08-06T04:33:34;1;1;
82179;PMS5003;71761;21.336;-157.724;2023-08-06T04:35:59;2;2;
82179;PMS5003;71761;21.336;-157.724;2023-08-06T04:38:25;2;2;
82179;PMS5003;71761;21.336;-157.724;2023-08-06T04:40:50;1;1;
82179;PMS5003;71761;21.336;-157.724;2023-08-06T04:43:15;1;1;
82179;PMS5003;71761;21.336;-157.724;2023-08-06T04:45:46;1;1;
82179;PMS5003;71761;21.336;-157.724;2023-08-06T04:48:06;3;2;
82179;PMS5003;71761;21.336;-157.724;2023-08-06T04:50:31;3;2;
82179;PMS5003;71761;21.336;-157.724;2023-08-06T04:55:22;1;1;
82179;PMS5003;71761;21.336;-157.724;2023-08-06T04:57:48;1;1;
82179;PMS5003;71761;21.336;-157.724;2023-08-06T05:00:13;1;1;
82179;PMS5003;71761;21.336;-157.724;2023-08-06T05:02:39;3;1;
82179;PMS5003;71761;21.336;-157.724;2023-08-06T05:05:04;0;0;
82179;PMS5003;71761;21.336;-157.724;2023-08-06T05:07:30;1;1;
82179;PMS5003;71761;21.336;-157.724;2023-08-06T05:09:55;1;1;
82179;PMS5003;71761;21.336;-157.724;2023-08-06T05:12:20;2;1;
82179;PMS5003;71761;21.336;-157.724;2023-08-06T05:14:46;1;1;
82179;PMS5003;71761;21.336;-157.724;2023-08-06T05:17:11;2;2;
82179;PMS5003;71761;21.336;-157.724;2023-08-06T05:19:37;1;1;
82179;PMS5003;71761;21.336;-157.724;2023-08-06T05:22:02;3;1;
82179;PMS5003;71761;21.336;-157.724;2023-08-06T05:24:27;2;1;
82179;PMS5003;71761;21.336;-157.724;2023-08-06T05:26:53;1;1;
82179;PMS5003;71761;21.336;-157.724;2023-08-06T05:29:19;2;0;
82179;PMS5003;71761;21.336;-157.724;2023-08-06T05:31:44;2;2;
82179;PMS5003;71761;21.336;-157.724;2023-08-06T05:34:09;3;2;
82179;PMS5003;71761;21.336;-157.724;2023-08-06T05:36:35;1;1;
82179;PMS5003;71761;21.336;-157.724;2023-08-06T05:39:00;1;0;
82179;PMS5003;71761;21.336;-157.724;2023-08-06T05:41:25;5;5;
82179;PMS5003;71761;21.336;-157.724;2023-08-06T05:43:51;3;1;
82179;PMS5003;71761;21.336;-157.724;2023-08-06T05:46:16;0;0;
82179;PMS5003;71761;21.336;-157.724;2023-08-06T05:48:42;3;3;
82179;PMS5003;71761;21.336;-157.724;2023-08-06T05:51:07;1;1;
82179;PMS5003;71761;21.336;-157.724;2023-08-06T05:53:32;2;1;
82179;PMS5003;71761;21.336;-157.724;2023-08-06T05:55:58;4;3;
82179;PMS5003;71761;21.336;-157.724;2023-08-06T05:58:23;2;2;
82179;PMS5003;71761;21.336;-157.724;2023-08-06T06:00:49;2;0;
82179;PMS5003;71761;21.336;-157.724;2023-08-06T06:03:14;3;1;
82179;PMS5003;71761;21.336;-157.724;2023-08-06T06:05:40;2;1;
82179;PMS5003;71761;21.336;-157.724;2023-08-06T06:08:05;2;2;
82179;PMS5003;71761;21.336;-157.724;2023-08-06T06:10:30;0;0;
82179;PMS5003;71761;21.336;-157.724;2023-08-06T06:12:57;3;2;
82179;PMS5003;71761;21.336;-157.724;2023-08-06T06:15:21;1;1;
82179;PMS5003;71761;21.336;-157.724;2023-08-06T06:17:47;4;2;
82179;PMS5003;71761;21.336;-157.724;2023-08-06T06:20:12;1;1;
82179;PMS5003;71761;21.336;-157.724;2023-08-06T06:22:37;3;3;
82179;PMS5003;71761;21.336;-157.724;2023-08-06T06:25:03;2;1;
82179;PMS5003;71761;21.336;-157.724;2023-08-06T06:27:28;2;2;
82179;PMS5003;71761;21.336;-157.724;2023-08-06T06:29:54;1;1;
82179;PMS5003;71761;21.336;-157.724;2023-08-06T06:32:19;1;1;
82179;PMS5003;71761;21.336;-157.724;2023-08-06T06:34:45;1;1;
82179;PMS5003;71761;21.336;-157.724;2023-08-06T06:37:10;2;2;
82179;PMS5003;71761;21.336;-157.724;2023-08-06T06:39:35;2;0;
82179;PMS5003;71761;21.336;-157.724;2023-08-06T06:42:01;1;1;
82179;PMS5003;71761;21.336;-157.724;2023-08-06T06:44:26;2;2;
82179;PMS5003;71761;21.336;-157.724;2023-08-06T06:46:52;2;2;
82179;PMS5003;71761;21.336;-157.724;2023-08-06T06:49:17;1;1;
82179;PMS5003;71761;21.336;-157.724;2023-08-06T06:51:42;1;1;
82179;PMS5003;71761;21.336;-157.724;2023-08-06T06:54:08;1;1;
82179;PMS5003;71761;21.336;-157.724;2023-08-06T06:56:34;1;1;
82179;PMS5003;71761;21.336;-157.724;2023-08-06T06:58:59;0;0;
82179;PMS5003;71761;21.336;-157.724;2023-08-06T07:01:24;2;1;
82179;PMS5003;71761;21.336;-157.724;2023-08-06T07:03:50;1;1;
82179;PMS5003;71761;21.336;-157.724;2023-08-06T07:06:15;2;2;
82179;PMS5003;71761;21.336;-157.724;2023-08-06T07:08:40;1;1;
82179;PMS5003;71761;21.336;-157.724;2023-08-06T07:11:06;2;2;
82179;PMS5003;71761;21.336;-157.724;2023-08-06T07:13:31;2;2;
82179;PMS5003;71761;21.336;-157.724;2023-08-06T07:15:57;1;1;
82179;PMS5003;71761;21.336;-157.724;2023-08-06T07:18:22;2;2;
82179;PMS5003;71761;21.336;-157.724;2023-08-06T07:20:48;2;2;
82179;PMS5003;71761;21.336;-157.724;2023-08-06T07:23:13;1;1;
82179;PMS5003;71761;21.336;-157.724;2023-08-06T07:25:38;1;1;
82179;PMS5003;71761;21.336;-157.724;2023-08-06T07:28:04;1;1;
82179;PMS5003;71761;21.336;-157.724;2023-08-06T07:30:29;4;1;
82179;PMS5003;71761;21.336;-157.724;2023-08-06T07:32:55;4;2;
82179;PMS5003;71761;21.336;-157.724;2023-08-06T07:35:20;0;0;
82179;PMS5003;71761;21.336;-157.724;2023-08-06T07:37:46;2;2;
82179;PMS5003;71761;21.336;-157.724;2023-08-06T07:40:11;2;1;
82179;PMS5003;71761;21.336;-157.724;2023-08-06T07:42:37;1;1;
82179;PMS5003;71761;21.336;-157.724;2023-08-06T07:45:02;1;1;
82179;PMS5003;71761;21.336;-157.724;2023-08-06T07:47:27;2;1;
82179;PMS5003;71761;21.336;-157.724;2023-08-06T07:49:53;2;1;
82179;PMS5003;71761;21.336;-157.724;2023-08-06T07:52:18;2;1;
82179;PMS5003;71761;21.336;-157.724;2023-08-06T07:54:43;0;0;
82179;PMS5003;71761;21.336;-157.724;2023-08-06T07:57:09;5;4;
82179;PMS5003;71761;21.336;-157.724;2023-08-06T07:59:34;1;1;
82179;PMS5003;71761;21.336;-157.724;2023-08-06T08:02:00;2;2;
82179;PMS5003;71761;21.336;-157.724;2023-08-06T08:04:25;2;2;
82179;PMS5003;71761;21.336;-157.724;2023-08-06T08:06:50;3;1;
82179;PMS5003;71761;21.336;-157.724;2023-08-06T08:09:16;1;1;
82179;PMS5003;71761;21.336;-157.724;2023-08-06T08:11:41;2;2;
82179;PMS5003;71761;21.336;-157.724;2023-08-06T08:14:07;0;0;
82179;PMS5003;71761;21.336;-157.724;2023-08-06T08:16:32;2;1;
82179;PMS5003;71761;21.336;-157.724;2023-08-06T08:18:57;2;1;
82179;PMS5003;71761;21.336;-157.724;2023-08-06T08:21:23;1;0;
82179;PMS5003;71761;21.336;-157.724;2023-08-06T08:23:48;1;1;
82179;PMS5003;71761;21.336;-157.724;2023-08-06T08:26:14;7;6;
82179;PMS5003;71761;21.336;-157.724;2023-08-06T08:28:39;6;6;
82179;PMS5003;71761;21.336;-157.724;2023-08-06T08:31:07;11;9;
82179;PMS5003;71761;21.336;-157.724;2023-08-06T08:33:30;16;14;
82179;PMS5003;71761;21.336;-157.724;2023-08-06T08:38:21;18;16;
82179;PMS5003;71761;21.336;-157.724;2023-08-06T08:40:46;20;18;
82179;PMS5003;71761;21.336;-157.724;2023-08-06T08:43:11;18;17;
82179;PMS5003;71761;21.336;-157.724;2023-08-06T08:45:39;15;14;
82179;PMS5003;71761;21.336;-157.724;2023-08-06T08:48:02;14;14;
82179;PMS5003;71761;21.336;-157.724;2023-08-06T08:50:27;12;12;
82179;PMS5003;71761;21.336;-157.724;2023-08-06T08:52:53;14;12;
82179;PMS5003;71761;21.336;-157.724;2023-08-06T08:55:18;7;7;
82179;PMS5003;71761;21.336;-157.724;2023-08-06T08:57:43;5;5;
82179;PMS5003;71761;21.336;-157.724;2023-08-06T09:00:11;6;5;
82179;PMS5003;71761;21.336;-157.724;2023-08-06T09:02:34;6;5;
82179;PMS5003;71761;21.336;-157.724;2023-08-06T09:05:00;5;4;
82179;PMS5003;71761;21.336;-157.724;2023-08-06T09:07:25;3;3;
82179;PMS5003;71761;21.336;-157.724;2023-08-06T09:09:51;7;2;
82179;PMS5003;71761;21.336;-157.724;2023-08-06T09:12:16;4;3;
82179;PMS5003;71761;21.336;-157.724;2023-08-06T09:14:42;2;2;
82179;PMS5003;71761;21.336;-157.724;2023-08-06T09:17:07;3;3;
82179;PMS5003;71761;21.336;-157.724;2023-08-06T09:19:33;2;1;
82179;PMS5003;71761;21.336;-157.724;2023-08-06T09:21:58;3;3;
82179;PMS5003;71761;21.336;-157.724;2023-08-06T09:24:23;2;2;
82179;PMS5003;71761;21.336;-157.724;2023-08-06T09:26:49;2;2;
82179;PMS5003;71761;21.336;-157.724;2023-08-06T09:29:21;0;0;
82179;PMS5003;71761;21.336;-157.724;2023-08-06T09:31:41;6;6;
82179;PMS5003;71761;21.336;-157.724;2023-08-06T09:34:06;1;1;
82179;PMS5003;71761;21.336;-157.724;2023-08-06T09:36:30;0;0;
82179;PMS5003;71761;21.336;-157.724;2023-08-06T09:38:56;3;1;
82179;PMS5003;71761;21.336;-157.724;2023-08-06T09:43:47;2;2;
82179;PMS5003;71761;21.336;-157.724;2023-08-06T09:46:12;2;1;
82179;PMS5003;71761;21.336;-157.724;2023-08-06T09:48:37;1;1;
82179;PMS5003;71761;21.336;-157.724;2023-08-06T09:51:03;3;1;
82179;PMS5003;71761;21.336;-157.724;2023-08-06T09:53:29;0;0;
82179;PMS5003;71761;21.336;-157.724;2023-08-06T09:55:54;1;1;
82179;PMS5003;71761;21.336;-157.724;2023-08-06T09:58:20;4;2;
82179;PMS5003;71761;21.336;-157.724;2023-08-06T10:00:44;2;2;
82179;PMS5003;71761;21.336;-157.724;2023-08-06T10:03:10;3;3;
82179;PMS5003;71761;21.336;-157.724;2023-08-06T10:05:35;4;2;
82179;PMS5003;71761;21.336;-157.724;2023-08-06T10:08:00;2;2;
82179;PMS5003;71761;21.336;-157.724;2023-08-06T10:10:25;2;2;
82179;PMS5003;71761;21.336;-157.724;2023-08-06T10:12:52;3;1;
82179;PMS5003;71761;21.336;-157.724;2023-08-06T10:15:17;3;1;
82179;PMS5003;71761;21.336;-157.724;2023-08-06T10:17:41;2;1;
82179;PMS5003;71761;21.336;-157.724;2023-08-06T10:20:09;4;4;
82179;PMS5003;71761;21.336;-157.724;2023-08-06T10:22:32;2;1;
82179;PMS5003;71761;21.336;-157.724;2023-08-06T10:24:58;3;3;
82179;PMS5003;71761;21.336;-157.724;2023-08-06T10:27:28;5;4;
82179;PMS5003;71761;21.336;-157.724;2023-08-06T10:29:48;1;1;
82179;PMS5003;71761;21.336;-157.724;2023-08-06T10:32:14;2;2;
82179;PMS5003;71761;21.336;-157.724;2023-08-06T10:37:05;1;1;
82179;PMS5003;71761;21.336;-157.724;2023-08-06T10:39:30;4;2;
82179;PMS5003;71761;21.336;-157.724;2023-08-06T10:41:55;2;2;
82179;PMS5003;71761;21.336;-157.724;2023-08-06T10:44:22;3;2;
82179;PMS5003;71761;21.336;-157.724;2023-08-06T10:46:46;3;3;
82179;PMS5003;71761;21.336;-157.724;2023-08-06T10:49:11;1;1;
82179;PMS5003;71761;21.336;-157.724;2023-08-06T10:51:37;3;3;
82179;PMS5003;71761;21.336;-157.724;2023-08-06T10:54:02;3;3;
82179;PMS5003;71761;21.336;-157.724;2023-08-06T10:56:28;1;1;
82179;PMS5003;71761;21.336;-157.724;2023-08-06T10:58:54;2;2;
82179;PMS5003;71761;21.336;-157.724;2023-08-06T11:01:19;1;1;
82179;PMS5003;71761;21.336;-157.724;2023-08-06T11:03:45;5;4;
82179;PMS5003;71761;21.336;-157.724;2023-08-06T11:06:10;4;2;
82179;PMS5003;71761;21.336;-157.724;2023-08-06T11:08:35;3;1;
82179;PMS5003;71761;21.336;-157.724;2023-08-06T11:13:26;2;2;
82179;PMS5003;71761;21.336;-157.724;2023-08-06T11:15:51;2;2;
82179;PMS5003;71761;21.336;-157.724;2023-08-06T11:18:17;1;1;
82179;PMS5003;71761;21.336;-157.724;2023-08-06T11:20:42;3;2;
82179;PMS5003;71761;21.336;-157.724;2023-08-06T11:23:10;3;1;
82179;PMS5003;71761;21.336;-157.724;2023-08-06T11:25:36;2;2;
82179;PMS5003;71761;21.336;-157.724;2023-08-06T11:28:00;1;1;
82179;PMS5003;71761;21.336;-157.724;2023-08-06T11:30:24;3;1;
82179;PMS5003;71761;21.336;-157.724;2023-08-06T11:32:49;1;1;
82179;PMS5003;71761;21.336;-157.724;2023-08-06T11:35:15;3;2;
82179;PMS5003;71761;21.336;-157.724;2023-08-06T11:37:42;1;1;
82179;PMS5003;71761;21.336;-157.724;2023-08-06T11:40:06;2;2;
82179;PMS5003;71761;21.336;-157.724;2023-08-06T11:42:31;2;2;
82179;PMS5003;71761;21.336;-157.724;2023-08-06T11:44:56;1;1;
82179;PMS5003;71761;21.336;-157.724;2023-08-06T11:47:22;4;2;
82179;PMS5003;71761;21.336;-157.724;2023-08-06T11:49:47;3;2;
82179;PMS5003;71761;21.336;-157.724;2023-08-06T11:52:14;3;2;
82179;PMS5003;71761;21.336;-157.724;2023-08-06T11:54:38;3;3;
82179;PMS5003;71761;21.336;-157.724;2023-08-06T11:57:03;2;1;
82179;PMS5003;71761;21.336;-157.724;2023-08-06T11:59:29;3;2;
82179;PMS5003;71761;21.336;-157.724;2023-08-06T12:01:54;5;2;
82179;PMS5003;71761;21.336;-157.724;2023-08-06T12:04:20;2;2;
82179;PMS5003;71761;21.336;-157.724;2023-08-06T12:06:45;2;2;
82179;PMS5003;71761;21.336;-157.724;2023-08-06T12:09:11;1;1;
82179;PMS5003;71761;21.336;-157.724;2023-08-06T12:11:36;2;2;
82179;PMS5003;71761;21.336;-157.724;2023-08-06T12:14:01;2;1;
82179;PMS5003;71761;21.336;-157.724;2023-08-06T12:16:27;2;2;
82179;PMS5003;71761;21.336;-157.724;2023-08-06T12:18:52;2;2;
82179;PMS5003;71761;21.336;-157.724;2023-08-06T12:21:17;2;2;
82179;PMS5003;71761;21.336;-157.724;2023-08-06T12:23:43;2;2;
82179;PMS5003;71761;21.336;-157.724;2023-08-06T12:26:08;2;2;
82179;PMS5003;71761;21.336;-157.724;2023-08-06T12:28:34;2;2;
82179;PMS5003;71761;21.336;-157.724;2023-08-06T12:30:59;1;1;
82179;PMS5003;71761;21.336;-157.724;2023-08-06T12:33:25;3;1;
82179;PMS5003;71761;21.336;-157.724;2023-08-06T12:35:50;2;2;
82179;PMS5003;71761;21.336;-157.724;2023-08-06T12:38:15;3;3;
82179;PMS5003;71761;21.336;-157.724;2023-08-06T12:40:41;5;5;
82179;PMS5003;71761;21.336;-157.724;2023-08-06T12:43:06;3;3;
82179;PMS5003;71761;21.336;-157.724;2023-08-06T12:45:32;2;2;
82179;PMS5003;71761;21.336;-157.724;2023-08-06T12:47:57;2;2;
82179;PMS5003;71761;21.336;-157.724;2023-08-06T12:50:23;1;1;
82179;PMS5003;71761;21.336;-157.724;2023-08-06T12:52:48;3;3;
82179;PMS5003;71761;21.336;-157.724;2023-08-06T12:55:14;2;1;
82179;PMS5003;71761;21.336;-157.724;2023-08-06T12:57:39;1;1;
82179;PMS5003;71761;21.336;-157.724;2023-08-06T13:00:05;2;2;
82179;PMS5003;71761;21.336;-157.724;2023-08-06T13:02:30;1;1;
82179;PMS5003;71761;21.336;-157.724;2023-08-06T13:04:55;2;2;
82179;PMS5003;71761;21.336;-157.724;2023-08-06T13:07:21;3;3;
82179;PMS5003;71761;21.336;-157.724;2023-08-06T13:09:46;3;3;
82179;PMS5003;71761;21.336;-157.724;2023-08-06T13:12:12;2;2;
82179;PMS5003;71761;21.336;-157.724;2023-08-06T13:14:37;2;2;
82179;PMS5003;71761;21.336;-157.724;2023-08-06T13:17:03;3;3;
82179;PMS5003;71761;21.336;-157.724;2023-08-06T13:19:28;1;1;
82179;PMS5003;71761;21.336;-157.724;2023-08-06T13:22:00;2;1;
82179;PMS5003;71761;21.336;-157.724;2023-08-06T13:24:19;1;1;
82179;PMS5003;71761;21.336;-157.724;2023-08-06T13:26:44;2;2;
82179;PMS5003;71761;21.336;-157.724;2023-08-06T13:29:10;1;1;
82179;PMS5003;71761;21.336;-157.724;2023-08-06T13:31:36;2;2;
82179;PMS5003;71761;21.336;-157.724;2023-08-06T13:34:01;3;1;
82179;PMS5003;71761;21.336;-157.724;2023-08-06T13:36:26;2;2;
82179;PMS5003;71761;21.336;-157.724;2023-08-06T13:38:52;1;1;
82179;PMS5003;71761;21.336;-157.724;2023-08-06T13:41:17;1;1;
82179;PMS5003;71761;21.336;-157.724;2023-08-06T13:43:43;2;2;
82179;PMS5003;71761;21.336;-157.724;2023-08-06T13:46:08;3;2;
82179;PMS5003;71761;21.336;-157.724;2023-08-06T13:48:34;3;3;
82179;PMS5003;71761;21.336;-157.724;2023-08-06T13:50:59;2;2;
82179;PMS5003;71761;21.336;-157.724;2023-08-06T13:53:24;3;2;
82179;PMS5003;71761;21.336;-157.724;2023-08-06T13:55:50;3;3;
82179;PMS5003;71761;21.336;-157.724;2023-08-06T13:58:15;2;2;
82179;PMS5003;71761;21.336;-157.724;2023-08-06T14:00:40;9;9;
82179;PMS5003;71761;21.336;-157.724;2023-08-06T14:03:06;1;1;
82179;PMS5003;71761;21.336;-157.724;2023-08-06T14:05:32;8;8;
82179;PMS5003;71761;21.336;-157.724;2023-08-06T14:07:57;1;1;
82179;PMS5003;71761;21.336;-157.724;2023-08-06T14:10:23;2;2;
82179;PMS5003;71761;21.336;-157.724;2023-08-06T14:12:49;4;4;
82179;PMS5003;71761;21.336;-157.724;2023-08-06T14:15:14;3;3;
82179;PMS5003;71761;21.336;-157.724;2023-08-06T14:17:39;1;1;
82179;PMS5003;71761;21.336;-157.724;2023-08-06T14:20:05;1;1;
82179;PMS5003;71761;21.336;-157.724;2023-08-06T14:22:30;4;3;
82179;PMS5003;71761;21.336;-157.724;2023-08-06T14:24:55;0;0;
82179;PMS5003;71761;21.336;-157.724;2023-08-06T14:27:21;2;2;
82179;PMS5003;71761;21.336;-157.724;2023-08-06T14:29:46;3;3;
82179;PMS5003;71761;21.336;-157.724;2023-08-06T14:32:11;3;3;
82179;PMS5003;71761;21.336;-157.724;2023-08-06T14:34:37;3;2;
82179;PMS5003;71761;21.336;-157.724;2023-08-06T14:37:02;2;2;
82179;PMS5003;71761;21.336;-157.724;2023-08-06T14:39:28;2;2;
82179;PMS5003;71761;21.336;-157.724;2023-08-06T14:41:53;4;4;
82179;PMS5003;71761;21.336;-157.724;2023-08-06T14:44:19;2;2;
82179;PMS5003;71761;21.336;-157.724;2023-08-06T14:46:44;3;2;
82179;PMS5003;71761;21.336;-157.724;2023-08-06T14:49:10;1;1;
82179;PMS5003;71761;21.336;-157.724;2023-08-06T14:51:35;1;1;
82179;PMS5003;71761;21.336;-157.724;2023-08-06T14:54:00;2;2;
82179;PMS5003;71761;21.336;-157.724;2023-08-06T14:56:27;2;2;
82179;PMS5003;71761;21.336;-157.724;2023-08-06T14:58:51;4;4;
82179;PMS5003;71761;21.336;-157.724;2023-08-06T15:01:17;6;3;
82179;PMS5003;71761;21.336;-157.724;2023-08-06T15:03:42;2;2;
82179;PMS5003;71761;21.336;-157.724;2023-08-06T15:06:08;2;2;
82179;PMS5003;71761;21.336;-157.724;2023-08-06T15:08:33;1;1;
82179;PMS5003;71761;21.336;-157.724;2023-08-06T15:10:59;3;3;
82179;PMS5003;71761;21.336;-157.724;2023-08-06T15:13:24;2;2;
82179;PMS5003;71761;21.336;-157.724;2023-08-06T15:15:49;3;3;
82179;PMS5003;71761;21.336;-157.724;2023-08-06T15:18:15;3;3;
82179;PMS5003;71761;21.336;-157.724;2023-08-06T15:20:40;4;3;
82179;PMS5003;71761;21.336;-157.724;2023-08-06T15:23:06;4;2;
82179;PMS5003;71761;21.336;-157.724;2023-08-06T15:25:31;3;3;
82179;PMS5003;71761;21.336;-157.724;2023-08-06T15:27:57;3;1;
82179;PMS5003;71761;21.336;-157.724;2023-08-06T15:30:22;4;3;
82179;PMS5003;71761;21.336;-157.724;2023-08-06T15:32:48;3;3;
82179;PMS5003;71761;21.336;-157.724;2023-08-06T15:35:13;2;2;
82179;PMS5003;71761;21.336;-157.724;2023-08-06T15:37:39;3;2;
82179;PMS5003;71761;21.336;-157.724;2023-08-06T15:40:05;5;4;
82179;PMS5003;71761;21.336;-157.724;2023-08-06T15:42:29;3;3;
82179;PMS5003;71761;21.336;-157.724;2023-08-06T15:44:55;1;1;
82179;PMS5003;71761;21.336;-157.724;2023-08-06T15:47:20;3;3;
82179;PMS5003;71761;21.336;-157.724;2023-08-06T15:49:46;5;4;
82179;PMS5003;71761;21.336;-157.724;2023-08-06T15:52:11;2;2;
82179;PMS5003;71761;21.336;-157.724;2023-08-06T15:54:37;6;3;
82179;PMS5003;71761;21.336;-157.724;2023-08-06T15:57:02;3;3;
82179;PMS5003;71761;21.336;-157.724;2023-08-06T15:59:28;2;2;
82179;PMS5003;71761;21.336;-157.724;2023-08-06T16:01:55;3;3;
82179;PMS5003;71761;21.336;-157.724;2023-08-06T16:04:19;3;2;
82179;PMS5003;71761;21.336;-157.724;2023-08-06T16:06:44;5;4;